Terminal Aerodrome Forecast
Issued by NWS

Home | Current Version | Previous Version | Text Only | Print | Product List | Glossary On
Versions: 1 2 3 4 5 6 7 8 9 10 11 12 13 14 15
350
FTUS43 KGRB 261738
TAFAUW
TAF
KAUW 261738Z 2618/2718 17007KT P6SM SCT028 BKN090
     FM270700 19003KT 6SM BR SCT060
      TEMPO 2708/2712 2SM BR OVC004
     FM271300 21003KT P6SM SCT005 SCT040
     FM271500 24004KT P6SM SCT080=

USA.gov is the U.S. government's official web portal to all federal, state and local government web resources and services.